sensor_id;sensor_type;location;lat;lon;timestamp;P1;durP1;ratioP1;P2;durP2;ratioP2
43070;SDS011;36278;47.952;21.714;2023-03-03T00:00:40;54.03;;;31.23;;
43070;SDS011;36278;47.952;21.714;2023-03-03T00:03:06;49.53;;;30.57;;
43070;SDS011;36278;47.952;21.714;2023-03-03T00:05:34;48.10;;;29.30;;
43070;SDS011;36278;47.952;21.714;2023-03-03T00:08:00;49.13;;;29.23;;
43070;SDS011;36278;47.952;21.714;2023-03-03T00:10:26;50.23;;;28.17;;
43070;SDS011;36278;47.952;21.714;2023-03-03T00:12:51;46.43;;;27.47;;
43070;SDS011;36278;47.952;21.714;2023-03-03T00:15:21;42.47;;;27.07;;
43070;SDS011;36278;47.952;21.714;2023-03-03T00:17:48;45.87;;;27.33;;
43070;SDS011;36278;47.952;21.714;2023-03-03T00:20:34;40.27;;;25.23;;
43070;SDS011;36278;47.952;21.714;2023-03-03T00:28:51;43.73;;;26.27;;
43070;SDS011;36278;47.952;21.714;2023-03-03T00:31:19;41.47;;;27.00;;
43070;SDS011;36278;47.952;21.714;2023-03-03T00:33:54;45.57;;;25.93;;
43070;SDS011;36278;47.952;21.714;2023-03-03T00:36:30;43.20;;;26.87;;
43070;SDS011;36278;47.952;21.714;2023-03-03T00:39:23;47.00;;;26.73;;
43070;SDS011;36278;47.952;21.714;2023-03-03T00:41:47;44.67;;;28.03;;
43070;SDS011;36278;47.952;21.714;2023-03-03T00:49:38;42.90;;;26.20;;
43070;SDS011;36278;47.952;21.714;2023-03-03T00:52:13;50.10;;;27.27;;
43070;SDS011;36278;47.952;21.714;2023-03-03T00:54:41;45.43;;;27.47;;
43070;SDS011;36278;47.952;21.714;2023-03-03T00:57:06;46.63;;;27.53;;
43070;SDS011;36278;47.952;21.714;2023-03-03T00:59:32;42.50;;;26.83;;
43070;SDS011;36278;47.952;21.714;2023-03-03T01:01:57;50.17;;;27.73;;
43070;SDS011;36278;47.952;21.714;2023-03-03T01:04:23;50.83;;;28.70;;
43070;SDS011;36278;47.952;21.714;2023-03-03T01:06:48;51.00;;;28.20;;
43070;SDS011;36278;47.952;21.714;2023-03-03T01:09:14;42.43;;;26.27;;
43070;SDS011;36278;47.952;21.714;2023-03-03T01:11:39;46.47;;;27.83;;
43070;SDS011;36278;47.952;21.714;2023-03-03T01:14:05;43.80;;;26.83;;
43070;SDS011;36278;47.952;21.714;2023-03-03T01:16:31;51.33;;;29.20;;
43070;SDS011;36278;47.952;21.714;2023-03-03T01:18:58;51.57;;;29.40;;
43070;SDS011;36278;47.952;21.714;2023-03-03T01:21:24;50.70;;;28.27;;
43070;SDS011;36278;47.952;21.714;2023-03-03T01:23:49;47.70;;;28.23;;
43070;SDS011;36278;47.952;21.714;2023-03-03T01:26:15;47.17;;;27.53;;
43070;SDS011;36278;47.952;21.714;2023-03-03T01:28:40;46.57;;;27.97;;
43070;SDS011;36278;47.952;21.714;2023-03-03T01:31:06;53.90;;;29.40;;
43070;SDS011;36278;47.952;21.714;2023-03-03T01:33:32;50.60;;;29.87;;
43070;SDS011;36278;47.952;21.714;2023-03-03T01:35:58;48.57;;;29.70;;
43070;SDS011;36278;47.952;21.714;2023-03-03T01:38:24;49.63;;;29.77;;
43070;SDS011;36278;47.952;21.714;2023-03-03T01:40:54;54.77;;;29.57;;
43070;SDS011;36278;47.952;21.714;2023-03-03T01:43:21;50.20;;;29.90;;
43070;SDS011;36278;47.952;21.714;2023-03-03T01:51:00;50.87;;;30.23;;
43070;SDS011;36278;47.952;21.714;2023-03-03T01:56:10;50.03;;;30.23;;
43070;SDS011;36278;47.952;21.714;2023-03-03T01:58:37;53.17;;;31.07;;
43070;SDS011;36278;47.952;21.714;2023-03-03T02:01:08;56.27;;;33.03;;
43070;SDS011;36278;47.952;21.714;2023-03-03T02:03:45;55.10;;;30.97;;
43070;SDS011;36278;47.952;21.714;2023-03-03T02:06:12;59.10;;;32.80;;
43070;SDS011;36278;47.952;21.714;2023-03-03T02:09:02;56.60;;;32.03;;
43070;SDS011;36278;47.952;21.714;2023-03-03T02:11:32;57.07;;;31.87;;
43070;SDS011;36278;47.952;21.714;2023-03-03T02:14:00;61.33;;;34.60;;
43070;SDS011;36278;47.952;21.714;2023-03-03T02:16:26;57.23;;;33.37;;
43070;SDS011;36278;47.952;21.714;2023-03-03T02:18:51;57.37;;;33.17;;
43070;SDS011;36278;47.952;21.714;2023-03-03T02:21:21;59.40;;;34.70;;
43070;SDS011;36278;47.952;21.714;2023-03-03T02:23:59;61.50;;;34.23;;
43070;SDS011;36278;47.952;21.714;2023-03-03T02:26:33;60.15;;;33.92;;
43070;SDS011;36278;47.952;21.714;2023-03-03T02:29:01;70.13;;;39.97;;
43070;SDS011;36278;47.952;21.714;2023-03-03T02:31:28;58.17;;;34.63;;
43070;SDS011;36278;47.952;21.714;2023-03-03T02:33:55;65.03;;;36.53;;
43070;SDS011;36278;47.952;21.714;2023-03-03T02:36:28;65.43;;;37.17;;
43070;SDS011;36278;47.952;21.714;2023-03-03T02:44:09;73.57;;;38.27;;
43070;SDS011;36278;47.952;21.714;2023-03-03T02:46:38;62.40;;;35.40;;
43070;SDS011;36278;47.952;21.714;2023-03-03T02:49:05;69.63;;;37.33;;
43070;SDS011;36278;47.952;21.714;2023-03-03T02:51:32;67.10;;;38.03;;
43070;SDS011;36278;47.952;21.714;2023-03-03T02:53:58;65.40;;;35.40;;
43070;SDS011;36278;47.952;21.714;2023-03-03T02:56:24;67.20;;;37.87;;
43070;SDS011;36278;47.952;21.714;2023-03-03T02:58:50;63.60;;;37.17;;
43070;SDS011;36278;47.952;21.714;2023-03-03T03:01:15;65.20;;;37.63;;
43070;SDS011;36278;47.952;21.714;2023-03-03T03:03:43;62.23;;;35.63;;
43070;SDS011;36278;47.952;21.714;2023-03-03T03:06:09;59.40;;;35.97;;
43070;SDS011;36278;47.952;21.714;2023-03-03T03:08:35;61.30;;;36.40;;
43070;SDS011;36278;47.952;21.714;2023-03-03T03:11:00;62.80;;;34.63;;
43070;SDS011;36278;47.952;21.714;2023-03-03T03:13:26;58.13;;;34.47;;
43070;SDS011;36278;47.952;21.714;2023-03-03T03:15:52;65.13;;;36.83;;
43070;SDS011;36278;47.952;21.714;2023-03-03T03:18:18;62.87;;;36.67;;
43070;SDS011;36278;47.952;21.714;2023-03-03T03:20:44;71.33;;;38.87;;
43070;SDS011;36278;47.952;21.714;2023-03-03T03:23:09;62.97;;;37.40;;
43070;SDS011;36278;47.952;21.714;2023-03-03T03:25:35;68.97;;;36.53;;
43070;SDS011;36278;47.952;21.714;2023-03-03T03:28:07;70.07;;;39.23;;
43070;SDS011;36278;47.952;21.714;2023-03-03T03:30:34;67.07;;;37.97;;
43070;SDS011;36278;47.952;21.714;2023-03-03T03:33:00;68.40;;;38.10;;
43070;SDS011;36278;47.952;21.714;2023-03-03T03:35:25;67.67;;;39.90;;
43070;SDS011;36278;47.952;21.714;2023-03-03T03:37:51;63.03;;;36.10;;
43070;SDS011;36278;47.952;21.714;2023-03-03T03:40:16;66.10;;;37.50;;
43070;SDS011;36278;47.952;21.714;2023-03-03T03:42:41;68.70;;;38.87;;
43070;SDS011;36278;47.952;21.714;2023-03-03T03:45:07;68.23;;;39.57;;
43070;SDS011;36278;47.952;21.714;2023-03-03T03:47:33;69.90;;;38.47;;
43070;SDS011;36278;47.952;21.714;2023-03-03T03:49:58;66.53;;;38.17;;
43070;SDS011;36278;47.952;21.714;2023-03-03T03:52:24;63.37;;;38.03;;
43070;SDS011;36278;47.952;21.714;2023-03-03T03:54:49;73.40;;;39.17;;
43070;SDS011;36278;47.952;21.714;2023-03-03T03:57:15;61.37;;;37.73;;
43070;SDS011;36278;47.952;21.714;2023-03-03T03:59:40;63.60;;;38.30;;
43070;SDS011;36278;47.952;21.714;2023-03-03T04:02:06;66.93;;;39.30;;
43070;SDS011;36278;47.952;21.714;2023-03-03T04:04:31;63.10;;;38.33;;
43070;SDS011;36278;47.952;21.714;2023-03-03T04:06:57;68.43;;;38.93;;
43070;SDS011;36278;47.952;21.714;2023-03-03T04:09:23;66.20;;;38.83;;
43070;SDS011;36278;47.952;21.714;2023-03-03T04:11:49;65.47;;;37.70;;
43070;SDS011;36278;47.952;21.714;2023-03-03T04:14:14;69.87;;;37.50;;
43070;SDS011;36278;47.952;21.714;2023-03-03T04:16:40;65.33;;;37.37;;
43070;SDS011;36278;47.952;21.714;2023-03-03T04:19:05;57.97;;;36.60;;
43070;SDS011;36278;47.952;21.714;2023-03-03T04:21:30;63.40;;;36.10;;
43070;SDS011;36278;47.952;21.714;2023-03-03T04:23:56;64.43;;;36.73;;
43070;SDS011;36278;47.952;21.714;2023-03-03T04:26:22;62.00;;;35.33;;
43070;SDS011;36278;47.952;21.714;2023-03-03T04:28:47;52.37;;;33.17;;
43070;SDS011;36278;47.952;21.714;2023-03-03T04:31:13;67.43;;;36.10;;
43070;SDS011;36278;47.952;21.714;2023-03-03T04:33:38;68.40;;;36.23;;
43070;SDS011;36278;47.952;21.714;2023-03-03T04:36:04;62.10;;;35.93;;
43070;SDS011;36278;47.952;21.714;2023-03-03T04:38:30;61.07;;;35.33;;
43070;SDS011;36278;47.952;21.714;2023-03-03T04:40:55;57.53;;;34.80;;
43070;SDS011;36278;47.952;21.714;2023-03-03T04:43:21;66.17;;;34.90;;
43070;SDS011;36278;47.952;21.714;2023-03-03T04:45:47;61.70;;;35.33;;
43070;SDS011;36278;47.952;21.714;2023-03-03T04:48:12;58.53;;;36.83;;
43070;SDS011;36278;47.952;21.714;2023-03-03T04:50:38;69.00;;;38.00;;
43070;SDS011;36278;47.952;21.714;2023-03-03T04:53:03;64.83;;;37.40;;
43070;SDS011;36278;47.952;21.714;2023-03-03T04:55:29;66.27;;;38.20;;
43070;SDS011;36278;47.952;21.714;2023-03-03T04:57:55;61.73;;;37.10;;
43070;SDS011;36278;47.952;21.714;2023-03-03T05:00:20;60.33;;;37.07;;
43070;SDS011;36278;47.952;21.714;2023-03-03T05:02:46;64.73;;;35.87;;
43070;SDS011;36278;47.952;21.714;2023-03-03T05:05:13;65.77;;;38.83;;
43070;SDS011;36278;47.952;21.714;2023-03-03T05:07:39;66.07;;;38.10;;
43070;SDS011;36278;47.952;21.714;2023-03-03T05:10:05;58.63;;;35.20;;
43070;SDS011;36278;47.952;21.714;2023-03-03T05:12:31;70.40;;;39.80;;
43070;SDS011;36278;47.952;21.714;2023-03-03T05:14:56;61.40;;;36.90;;
43070;SDS011;36278;47.952;21.714;2023-03-03T05:17:22;66.80;;;39.07;;
43070;SDS011;36278;47.952;21.714;2023-03-03T05:19:47;63.20;;;37.77;;
43070;SDS011;36278;47.952;21.714;2023-03-03T05:22:13;71.73;;;38.40;;
43070;SDS011;36278;47.952;21.714;2023-03-03T05:24:38;67.33;;;37.87;;
43070;SDS011;36278;47.952;21.714;2023-03-03T05:27:04;64.87;;;37.27;;
43070;SDS011;36278;47.952;21.714;2023-03-03T05:29:30;69.80;;;38.30;;
43070;SDS011;36278;47.952;21.714;2023-03-03T05:31:57;73.70;;;38.80;;
43070;SDS011;36278;47.952;21.714;2023-03-03T05:34:23;65.80;;;36.97;;
43070;SDS011;36278;47.952;21.714;2023-03-03T05:36:48;70.17;;;38.80;;
43070;SDS011;36278;47.952;21.714;2023-03-03T05:39:15;72.80;;;40.33;;
43070;SDS011;36278;47.952;21.714;2023-03-03T05:41:41;75.13;;;39.10;;
43070;SDS011;36278;47.952;21.714;2023-03-03T05:44:06;70.37;;;41.00;;
43070;SDS011;36278;47.952;21.714;2023-03-03T05:46:32;76.13;;;43.60;;
43070;SDS011;36278;47.952;21.714;2023-03-03T05:48:58;78.80;;;42.00;;
43070;SDS011;36278;47.952;21.714;2023-03-03T05:51:23;77.43;;;41.50;;
43070;SDS011;36278;47.952;21.714;2023-03-03T05:53:49;73.07;;;41.30;;
43070;SDS011;36278;47.952;21.714;2023-03-03T05:56:15;73.63;;;43.30;;
43070;SDS011;36278;47.952;21.714;2023-03-03T05:58:40;78.33;;;42.30;;
43070;SDS011;36278;47.952;21.714;2023-03-03T06:01:06;74.57;;;41.43;;
43070;SDS011;36278;47.952;21.714;2023-03-03T06:03:50;72.43;;;41.80;;
43070;SDS011;36278;47.952;21.714;2023-03-03T06:06:34;75.13;;;42.57;;
43070;SDS011;36278;47.952;21.714;2023-03-03T06:09:18;71.50;;;41.50;;
43070;SDS011;36278;47.952;21.714;2023-03-03T06:12:03;78.50;;;47.10;;
43070;SDS011;36278;47.952;21.714;2023-03-03T06:14:49;83.03;;;42.03;;
43070;SDS011;36278;47.952;21.714;2023-03-03T06:17:33;76.10;;;41.77;;
43070;SDS011;36278;47.952;21.714;2023-03-03T06:20:17;79.90;;;44.87;;
43070;SDS011;36278;47.952;21.714;2023-03-03T06:22:52;72.00;;;44.07;;
43070;SDS011;36278;47.952;21.714;2023-03-03T06:25:17;82.00;;;44.20;;
43070;SDS011;36278;47.952;21.714;2023-03-03T06:27:43;87.57;;;44.10;;
43070;SDS011;36278;47.952;21.714;2023-03-03T06:30:09;84.03;;;45.97;;
43070;SDS011;36278;47.952;21.714;2023-03-03T06:32:35;86.77;;;46.93;;
43070;SDS011;36278;47.952;21.714;2023-03-03T06:35:00;91.63;;;49.03;;
43070;SDS011;36278;47.952;21.714;2023-03-03T06:37:25;101.63;;;51.07;;
43070;SDS011;36278;47.952;21.714;2023-03-03T06:39:51;93.87;;;50.37;;
43070;SDS011;36278;47.952;21.714;2023-03-03T06:42:17;89.13;;;51.37;;
43070;SDS011;36278;47.952;21.714;2023-03-03T06:44:43;90.63;;;52.13;;
43070;SDS011;36278;47.952;21.714;2023-03-03T06:47:09;84.00;;;47.90;;
43070;SDS011;36278;47.952;21.714;2023-03-03T06:49:34;58.30;;;35.70;;
43070;SDS011;36278;47.952;21.714;2023-03-03T06:52:00;55.50;;;34.40;;
43070;SDS011;36278;47.952;21.714;2023-03-03T06:54:33;53.03;;;33.37;;
43070;SDS011;36278;47.952;21.714;2023-03-03T06:57:00;57.53;;;35.33;;
43070;SDS011;36278;47.952;21.714;2023-03-03T06:59:38;67.73;;;38.47;;
43070;SDS011;36278;47.952;21.714;2023-03-03T07:02:10;57.50;;;36.67;;
43070;SDS011;36278;47.952;21.714;2023-03-03T07:04:41;59.03;;;37.43;;
43070;SDS011;36278;47.952;21.714;2023-03-03T07:07:22;65.00;;;39.47;;
43070;SDS011;36278;47.952;21.714;2023-03-03T07:39:29;69.87;;;38.93;;
43070;SDS011;36278;47.952;21.714;2023-03-03T07:42:01;67.95;;;38.97;;
43070;SDS011;36278;47.952;21.714;2023-03-03T07:44:57;68.60;;;37.97;;
43070;SDS011;36278;47.952;21.714;2023-03-03T07:49:49;59.87;;;36.60;;
43070;SDS011;36278;47.952;21.714;2023-03-03T07:55:01;50.63;;;29.73;;
43070;SDS011;36278;47.952;21.714;2023-03-03T07:57:49;44.37;;;28.47;;
43070;SDS011;36278;47.952;21.714;2023-03-03T08:03:04;41.07;;;25.93;;
43070;SDS011;36278;47.952;21.714;2023-03-03T08:05:41;42.83;;;25.30;;
43070;SDS011;36278;47.952;21.714;2023-03-03T08:13:08;44.47;;;27.17;;
43070;SDS011;36278;47.952;21.714;2023-03-03T08:15:41;42.23;;;27.90;;
43070;SDS011;36278;47.952;21.714;2023-03-03T08:18:15;46.13;;;28.53;;
43070;SDS011;36278;47.952;21.714;2023-03-03T08:20:46;47.03;;;28.83;;
43070;SDS011;36278;47.952;21.714;2023-03-03T08:23:14;47.23;;;29.37;;
43070;SDS011;36278;47.952;21.714;2023-03-03T08:25:41;51.87;;;28.87;;
43070;SDS011;36278;47.952;21.714;2023-03-03T08:28:07;40.23;;;25.47;;
43070;SDS011;36278;47.952;21.714;2023-03-03T08:30:33;38.67;;;25.27;;
43070;SDS011;36278;47.952;21.714;2023-03-03T08:32:58;41.73;;;25.67;;
43070;SDS011;36278;47.952;21.714;2023-03-03T08:35:25;45.37;;;28.93;;
43070;SDS011;36278;47.952;21.714;2023-03-03T08:37:52;41.53;;;26.77;;
43070;SDS011;36278;47.952;21.714;2023-03-03T08:40:18;45.63;;;27.10;;
43070;SDS011;36278;47.952;21.714;2023-03-03T08:42:43;45.97;;;27.93;;
43070;SDS011;36278;47.952;21.714;2023-03-03T08:45:09;41.07;;;26.07;;
43070;SDS011;36278;47.952;21.714;2023-03-03T08:47:35;43.23;;;27.17;;
43070;SDS011;36278;47.952;21.714;2023-03-03T08:50:00;44.47;;;27.47;;
43070;SDS011;36278;47.952;21.714;2023-03-03T08:52:26;46.00;;;28.47;;
43070;SDS011;36278;47.952;21.714;2023-03-03T08:54:51;46.77;;;26.93;;
43070;SDS011;36278;47.952;21.714;2023-03-03T08:57:18;47.07;;;26.70;;
43070;SDS011;36278;47.952;21.714;2023-03-03T08:59:44;46.97;;;29.47;;
43070;SDS011;36278;47.952;21.714;2023-03-03T09:02:12;41.60;;;27.23;;
43070;SDS011;36278;47.952;21.714;2023-03-03T09:04:38;42.07;;;26.93;;
43070;SDS011;36278;47.952;21.714;2023-03-03T09:07:04;44.90;;;27.03;;
43070;SDS011;36278;47.952;21.714;2023-03-03T09:09:30;41.33;;;27.13;;
43070;SDS011;36278;47.952;21.714;2023-03-03T09:12:00;41.83;;;26.63;;
43070;SDS011;36278;47.952;21.714;2023-03-03T09:14:40;42.23;;;26.83;;
43070;SDS011;36278;47.952;21.714;2023-03-03T09:17:16;38.87;;;26.00;;
43070;SDS011;36278;47.952;21.714;2023-03-03T09:19:49;38.17;;;23.98;;
43070;SDS011;36278;47.952;21.714;2023-03-03T09:22:22;31.60;;;20.70;;
43070;SDS011;36278;47.952;21.714;2023-03-03T09:24:50;33.83;;;22.20;;
43070;SDS011;36278;47.952;21.714;2023-03-03T09:27:20;31.97;;;21.30;;
43070;SDS011;36278;47.952;21.714;2023-03-03T09:29:54;28.00;;;19.37;;
43070;SDS011;36278;47.952;21.714;2023-03-03T09:37:50;31.30;;;18.53;;
43070;SDS011;36278;47.952;21.714;2023-03-03T09:43:20;34.77;;;19.30;;
43070;SDS011;36278;47.952;21.714;2023-03-03T09:45:56;27.90;;;17.60;;
43070;SDS011;36278;47.952;21.714;2023-03-03T09:49:48;26.50;;;17.97;;
43070;SDS011;36278;47.952;21.714;2023-03-03T09:51:56;24.63;;;16.17;;
43070;SDS011;36278;47.952;21.714;2023-03-03T09:58:13;23.17;;;14.37;;
43070;SDS011;36278;47.952;21.714;2023-03-03T10:15:00;23.27;;;14.60;;
43070;SDS011;36278;47.952;21.714;2023-03-03T10:17:56;25.43;;;14.63;;
43070;SDS011;36278;47.952;21.714;2023-03-03T10:20:36;22.60;;;14.43;;
43070;SDS011;36278;47.952;21.714;2023-03-03T10:23:10;32.77;;;14.77;;
43070;SDS011;36278;47.952;21.714;2023-03-03T10:42:38;20.53;;;13.70;;
43070;SDS011;36278;47.952;21.714;2023-03-03T10:53:24;28.37;;;18.10;;
43070;SDS011;36278;47.952;21.714;2023-03-03T10:58:56;31.45;;;20.80;;
43070;SDS011;36278;47.952;21.714;2023-03-03T11:01:42;35.33;;;22.03;;
43070;SDS011;36278;47.952;21.714;2023-03-03T11:04:28;30.27;;;20.57;;
43070;SDS011;36278;47.952;21.714;2023-03-03T11:07:07;28.13;;;19.40;;
43070;SDS011;36278;47.952;21.714;2023-03-03T11:12:36;30.40;;;18.87;;
43070;SDS011;36278;47.952;21.714;2023-03-03T11:15:29;25.48;;;17.23;;
43070;SDS011;36278;47.952;21.714;2023-03-03T11:27:08;25.92;;;16.35;;
43070;SDS011;36278;47.952;21.714;2023-03-03T11:30:02;24.80;;;16.80;;
43070;SDS011;36278;47.952;21.714;2023-03-03T11:38:44;19.40;;;13.60;;
43070;SDS011;36278;47.952;21.714;2023-03-03T11:43:56;19.33;;;13.87;;
43070;SDS011;36278;47.952;21.714;2023-03-03T11:46:39;20.17;;;13.90;;
43070;SDS011;36278;47.952;21.714;2023-03-03T11:52:05;18.30;;;12.43;;
43070;SDS011;36278;47.952;21.714;2023-03-03T11:54:55;18.37;;;13.03;;
43070;SDS011;36278;47.952;21.714;2023-03-03T11:57:49;18.33;;;12.77;;
43070;SDS011;36278;47.952;21.714;2023-03-03T12:00:30;20.07;;;12.67;;
43070;SDS011;36278;47.952;21.714;2023-03-03T12:03:10;21.07;;;13.27;;
43070;SDS011;36278;47.952;21.714;2023-03-03T12:17:20;28.43;;;14.80;;
43070;SDS011;36278;47.952;21.714;2023-03-03T12:22:41;18.07;;;11.97;;
43070;SDS011;36278;47.952;21.714;2023-03-03T12:41:39;17.00;;;12.57;;
43070;SDS011;36278;47.952;21.714;2023-03-03T12:44:23;22.87;;;12.27;;
43070;SDS011;36278;47.952;21.714;2023-03-03T12:46:59;17.38;;;12.05;;
43070;SDS011;36278;47.952;21.714;2023-03-03T12:49:49;23.73;;;12.57;;
43070;SDS011;36278;47.952;21.714;2023-03-03T13:00:57;22.63;;;12.60;;
43070;SDS011;36278;47.952;21.714;2023-03-03T13:03:31;17.27;;;11.60;;
43070;SDS011;36278;47.952;21.714;2023-03-03T13:09:10;16.77;;;10.97;;
43070;SDS011;36278;47.952;21.714;2023-03-03T13:17:22;15.07;;;10.57;;
43070;SDS011;36278;47.952;21.714;2023-03-03T13:28:17;15.87;;;10.73;;
43070;SDS011;36278;47.952;21.714;2023-03-03T13:30:51;16.43;;;9.40;;
43070;SDS011;36278;47.952;21.714;2023-03-03T13:35:56;16.77;;;10.20;;
43070;SDS011;36278;47.952;21.714;2023-03-03T13:38:46;17.80;;;11.30;;
43070;SDS011;36278;47.952;21.714;2023-03-03T13:41:16;17.67;;;10.63;;
43070;SDS011;36278;47.952;21.714;2023-03-03T13:46:46;15.87;;;10.13;;
43070;SDS011;36278;47.952;21.714;2023-03-03T13:52:02;16.17;;;8.70;;
43070;SDS011;36278;47.952;21.714;2023-03-03T14:02:57;14.03;;;9.73;;
43070;SDS011;36278;47.952;21.714;2023-03-03T14:05:47;16.30;;;9.57;;
43070;SDS011;36278;47.952;21.714;2023-03-03T14:08:20;18.23;;;9.43;;
43070;SDS011;36278;47.952;21.714;2023-03-03T14:11:11;14.00;;;9.60;;
43070;SDS011;36278;47.952;21.714;2023-03-03T14:14:07;12.30;;;8.73;;
43070;SDS011;36278;47.952;21.714;2023-03-03T14:22:17;18.97;;;10.63;;
43070;SDS011;36278;47.952;21.714;2023-03-03T14:27:33;17.03;;;9.67;;
43070;SDS011;36278;47.952;21.714;2023-03-03T14:30:39;39.67;;;28.07;;
43070;SDS011;36278;47.952;21.714;2023-03-03T14:35:38;18.67;;;9.43;;
43070;SDS011;36278;47.952;21.714;2023-03-03T14:38:16;14.30;;;9.57;;
43070;SDS011;36278;47.952;21.714;2023-03-03T14:40:44;16.67;;;9.97;;
43070;SDS011;36278;47.952;21.714;2023-03-03T14:43:18;17.30;;;9.97;;
43070;SDS011;36278;47.952;21.714;2023-03-03T14:45:48;16.67;;;10.90;;
43070;SDS011;36278;47.952;21.714;2023-03-03T14:48:18;15.00;;;10.10;;
43070;SDS011;36278;47.952;21.714;2023-03-03T14:50:49;15.57;;;10.13;;
43070;SDS011;36278;47.952;21.714;2023-03-03T14:55:47;14.57;;;9.80;;
43070;SDS011;36278;47.952;21.714;2023-03-03T14:58:29;13.93;;;9.77;;
43070;SDS011;36278;47.952;21.714;2023-03-03T15:06:51;15.37;;;9.67;;
43070;SDS011;36278;47.952;21.714;2023-03-03T15:09:24;17.50;;;10.23;;
43070;SDS011;36278;47.952;21.714;2023-03-03T15:11:54;17.83;;;10.47;;
43070;SDS011;36278;47.952;21.714;2023-03-03T15:14:34;18.97;;;11.07;;
43070;SDS011;36278;47.952;21.714;2023-03-03T15:28:35;21.33;;;12.40;;
43070;SDS011;36278;47.952;21.714;2023-03-03T15:31:03;18.38;;;11.68;;
43070;SDS011;36278;47.952;21.714;2023-03-03T15:38:59;16.80;;;12.20;;
43070;SDS011;36278;47.952;21.714;2023-03-03T15:41:56;19.10;;;12.60;;
43070;SDS011;36278;47.952;21.714;2023-03-03T15:44:30;20.57;;;12.90;;
43070;SDS011;36278;47.952;21.714;2023-03-03T15:47:06;20.93;;;13.00;;
43070;SDS011;36278;47.952;21.714;2023-03-03T15:52:35;25.27;;;15.67;;
43070;SDS011;36278;47.952;21.714;2023-03-03T16:03:32;24.63;;;15.63;;
43070;SDS011;36278;47.952;21.714;2023-03-03T16:06:06;24.33;;;14.70;;
43070;SDS011;36278;47.952;21.714;2023-03-03T16:11:44;24.50;;;14.87;;
43070;SDS011;36278;47.952;21.714;2023-03-03T16:14:27;27.03;;;14.20;;
43070;SDS011;36278;47.952;21.714;2023-03-03T16:27:51;27.58;;;15.50;;
43070;SDS011;36278;47.952;21.714;2023-03-03T16:35:59;29.97;;;17.67;;
43070;SDS011;36278;47.952;21.714;2023-03-03T16:38:36;31.77;;;18.13;;
43070;SDS011;36278;47.952;21.714;2023-03-03T16:41:12;32.40;;;18.63;;
43070;SDS011;36278;47.952;21.714;2023-03-03T16:46:34;31.77;;;18.03;;
43070;SDS011;36278;47.952;21.714;2023-03-03T16:51:40;35.03;;;21.90;;
43070;SDS011;36278;47.952;21.714;2023-03-03T16:57:20;38.83;;;24.13;;
43070;SDS011;36278;47.952;21.714;2023-03-03T16:59:51;36.27;;;24.53;;
43070;SDS011;36278;47.952;21.714;2023-03-03T17:02:40;37.77;;;25.00;;
43070;SDS011;36278;47.952;21.714;2023-03-03T17:11:27;45.03;;;26.08;;
43070;SDS011;36278;47.952;21.714;2023-03-03T17:17:05;43.37;;;26.63;;
43070;SDS011;36278;47.952;21.714;2023-03-03T17:22:42;43.70;;;29.10;;
43070;SDS011;36278;47.952;21.714;2023-03-03T17:25:21;39.43;;;27.30;;
43070;SDS011;36278;47.952;21.714;2023-03-03T17:30:29;40.10;;;27.20;;
43070;SDS011;36278;47.952;21.714;2023-03-03T17:33:27;41.50;;;27.07;;
43070;SDS011;36278;47.952;21.714;2023-03-03T17:36:21;39.80;;;26.27;;
43070;SDS011;36278;47.952;21.714;2023-03-03T17:42:01;42.90;;;25.83;;
43070;SDS011;36278;47.952;21.714;2023-03-03T17:44:44;35.40;;;25.10;;
43070;SDS011;36278;47.952;21.714;2023-03-03T17:47:25;38.53;;;25.43;;
43070;SDS011;36278;47.952;21.714;2023-03-03T17:56:48;44.27;;;28.10;;
43070;SDS011;36278;47.952;21.714;2023-03-03T17:59:15;44.37;;;27.37;;
43070;SDS011;36278;47.952;21.714;2023-03-03T18:18:08;37.60;;;25.67;;
43070;SDS011;36278;47.952;21.714;2023-03-03T18:31:48;40.37;;;26.30;;
43070;SDS011;36278;47.952;21.714;2023-03-03T18:39:49;39.87;;;26.77;;
43070;SDS011;36278;47.952;21.714;2023-03-03T18:42:41;39.07;;;28.20;;
43070;SDS011;36278;47.952;21.714;2023-03-03T18:45:10;43.67;;;27.47;;
43070;SDS011;36278;47.952;21.714;2023-03-03T18:48:08;44.00;;;25.97;;
43070;SDS011;36278;47.952;21.714;2023-03-03T18:50:39;42.35;;;26.58;;
43070;SDS011;36278;47.952;21.714;2023-03-03T18:53:15;42.20;;;26.77;;
43070;SDS011;36278;47.952;21.714;2023-03-03T18:55:55;41.10;;;26.53;;
43070;SDS011;36278;47.952;21.714;2023-03-03T19:04:00;42.13;;;26.67;;
43070;SDS011;36278;47.952;21.714;2023-03-03T19:06:32;40.07;;;26.10;;
43070;SDS011;36278;47.952;21.714;2023-03-03T19:09:41;38.70;;;25.53;;
43070;SDS011;36278;47.952;21.714;2023-03-03T19:12:40;39.63;;;26.77;;
43070;SDS011;36278;47.952;21.714;2023-03-03T19:20:37;34.20;;;23.40;;
43070;SDS011;36278;47.952;21.714;2023-03-03T19:23:16;36.03;;;24.77;;
43070;SDS011;36278;47.952;21.714;2023-03-03T19:25:45;37.13;;;23.03;;
43070;SDS011;36278;47.952;21.714;2023-03-03T19:28:38;37.47;;;23.90;;
43070;SDS011;36278;47.952;21.714;2023-03-03T19:31:20;34.93;;;22.97;;
43070;SDS011;36278;47.952;21.714;2023-03-03T19:44:40;36.77;;;24.70;;
43070;SDS011;36278;47.952;21.714;2023-03-03T19:47:15;35.10;;;23.33;;
43070;SDS011;36278;47.952;21.714;2023-03-03T19:49:52;37.07;;;24.43;;
43070;SDS011;36278;47.952;21.714;2023-03-03T19:52:38;36.17;;;23.30;;
43070;SDS011;36278;47.952;21.714;2023-03-03T20:00:31;36.47;;;23.60;;
43070;SDS011;36278;47.952;21.714;2023-03-03T20:03:20;37.20;;;23.87;;
43070;SDS011;36278;47.952;21.714;2023-03-03T20:08:47;41.43;;;26.43;;
43070;SDS011;36278;47.952;21.714;2023-03-03T20:11:30;37.13;;;24.73;;
43070;SDS011;36278;47.952;21.714;2023-03-03T20:17:18;37.93;;;25.63;;
43070;SDS011;36278;47.952;21.714;2023-03-03T20:26:41;39.37;;;25.93;;
43070;SDS011;36278;47.952;21.714;2023-03-03T21:01:35;41.17;;;25.77;;
43070;SDS011;36278;47.952;21.714;2023-03-03T21:07:02;45.87;;;28.07;;
43070;SDS011;36278;47.952;21.714;2023-03-03T21:09:34;42.57;;;26.93;;
43070;SDS011;36278;47.952;21.714;2023-03-03T21:12:09;42.10;;;27.30;;
43070;SDS011;36278;47.952;21.714;2023-03-03T21:15:02;38.40;;;25.90;;
43070;SDS011;36278;47.952;21.714;2023-03-03T21:17:31;42.40;;;27.90;;
43070;SDS011;36278;47.952;21.714;2023-03-03T21:22:42;41.20;;;28.10;;
43070;SDS011;36278;47.952;21.714;2023-03-03T21:25:10;43.27;;;28.60;;
43070;SDS011;36278;47.952;21.714;2023-03-03T21:28:30;42.40;;;28.47;;
43070;SDS011;36278;47.952;21.714;2023-03-03T21:36:10;48.20;;;31.73;;
43070;SDS011;36278;47.952;21.714;2023-03-03T21:38:56;49.53;;;32.80;;
43070;SDS011;36278;47.952;21.714;2023-03-03T21:41:23;49.30;;;31.60;;
43070;SDS011;36278;47.952;21.714;2023-03-03T21:43:49;48.97;;;31.77;;
43070;SDS011;36278;47.952;21.714;2023-03-03T21:46:21;48.67;;;32.20;;
43070;SDS011;36278;47.952;21.714;2023-03-03T21:48:49;54.70;;;33.57;;
43070;SDS011;36278;47.952;21.714;2023-03-03T21:51:15;52.90;;;32.50;;